sensor_id;sensor_type;location;lat;lon;timestamp;P1;durP1;ratioP1;P2;durP2;ratioP2
5460;SDS011;2753;49.196;8.286;2022-08-27T00:01:29;31.80;;;27.40;;
5460;SDS011;2753;49.196;8.286;2022-08-27T00:03:55;33.13;;;27.27;;
5460;SDS011;2753;49.196;8.286;2022-08-27T00:06:21;34.80;;;27.20;;
5460;SDS011;2753;49.196;8.286;2022-08-27T00:08:48;34.23;;;27.10;;
5460;SDS011;2753;49.196;8.286;2022-08-27T00:11:15;32.50;;;26.27;;
5460;SDS011;2753;49.196;8.286;2022-08-27T00:13:42;37.10;;;25.57;;
5460;SDS011;2753;49.196;8.286;2022-08-27T00:16:09;36.57;;;27.13;;
5460;SDS011;2753;49.196;8.286;2022-08-27T00:18:38;35.50;;;27.10;;
5460;SDS011;2753;49.196;8.286;2022-08-27T00:21:04;30.07;;;24.70;;
5460;SDS011;2753;49.196;8.286;2022-08-27T00:23:31;31.63;;;25.00;;
5460;SDS011;2753;49.196;8.286;2022-08-27T00:25:57;32.73;;;25.50;;
5460;SDS011;2753;49.196;8.286;2022-08-27T00:28:24;34.93;;;26.50;;
5460;SDS011;2753;49.196;8.286;2022-08-27T00:30:51;38.50;;;26.67;;
5460;SDS011;2753;49.196;8.286;2022-08-27T00:33:19;32.40;;;25.07;;
5460;SDS011;2753;49.196;8.286;2022-08-27T00:35:45;33.10;;;26.13;;
5460;SDS011;2753;49.196;8.286;2022-08-27T00:38:11;32.57;;;27.60;;
5460;SDS011;2753;49.196;8.286;2022-08-27T00:40:37;38.27;;;27.17;;
5460;SDS011;2753;49.196;8.286;2022-08-27T00:43:03;30.13;;;25.07;;
5460;SDS011;2753;49.196;8.286;2022-08-27T00:45:30;32.80;;;26.90;;
5460;SDS011;2753;49.196;8.286;2022-08-27T00:48:00;30.30;;;25.33;;
5460;SDS011;2753;49.196;8.286;2022-08-27T00:50:49;31.90;;;27.50;;
5460;SDS011;2753;49.196;8.286;2022-08-27T00:53:16;36.30;;;27.30;;
5460;SDS011;2753;49.196;8.286;2022-08-27T00:55:45;29.17;;;25.70;;
5460;SDS011;2753;49.196;8.286;2022-08-27T00:58:24;34.60;;;28.00;;
5460;SDS011;2753;49.196;8.286;2022-08-27T01:00:51;29.73;;;26.63;;
5460;SDS011;2753;49.196;8.286;2022-08-27T01:03:17;35.20;;;27.30;;
5460;SDS011;2753;49.196;8.286;2022-08-27T01:05:43;37.23;;;27.67;;
5460;SDS011;2753;49.196;8.286;2022-08-27T01:08:16;39.50;;;28.23;;
5460;SDS011;2753;49.196;8.286;2022-08-27T01:10:44;42.77;;;26.63;;
5460;SDS011;2753;49.196;8.286;2022-08-27T01:13:11;33.37;;;26.97;;
5460;SDS011;2753;49.196;8.286;2022-08-27T01:15:39;36.23;;;26.90;;
5460;SDS011;2753;49.196;8.286;2022-08-27T01:18:06;30.97;;;26.80;;
5460;SDS011;2753;49.196;8.286;2022-08-27T01:20:41;34.73;;;27.23;;
5460;SDS011;2753;49.196;8.286;2022-08-27T01:23:15;32.33;;;26.47;;
5460;SDS011;2753;49.196;8.286;2022-08-27T01:25:43;34.10;;;27.43;;
5460;SDS011;2753;49.196;8.286;2022-08-27T01:28:09;33.77;;;28.40;;
5460;SDS011;2753;49.196;8.286;2022-08-27T01:30:36;29.87;;;26.57;;
5460;SDS011;2753;49.196;8.286;2022-08-27T01:33:11;32.90;;;27.87;;
5460;SDS011;2753;49.196;8.286;2022-08-27T01:35:45;35.47;;;28.10;;
5460;SDS011;2753;49.196;8.286;2022-08-27T01:38:12;34.20;;;27.27;;
5460;SDS011;2753;49.196;8.286;2022-08-27T01:40:39;43.03;;;27.30;;
5460;SDS011;2753;49.196;8.286;2022-08-27T01:43:05;43.23;;;29.40;;
5460;SDS011;2753;49.196;8.286;2022-08-27T01:45:33;30.63;;;26.77;;
5460;SDS011;2753;49.196;8.286;2022-08-27T01:48:03;32.20;;;27.67;;
5460;SDS011;2753;49.196;8.286;2022-08-27T01:50:34;35.10;;;28.10;;
5460;SDS011;2753;49.196;8.286;2022-08-27T01:53:06;33.17;;;26.60;;
5460;SDS011;2753;49.196;8.286;2022-08-27T01:55:37;37.27;;;28.50;;
5460;SDS011;2753;49.196;8.286;2022-08-27T01:58:03;37.27;;;27.77;;
5460;SDS011;2753;49.196;8.286;2022-08-27T02:00:31;35.13;;;25.90;;
5460;SDS011;2753;49.196;8.286;2022-08-27T02:03:00;33.43;;;27.40;;
5460;SDS011;2753;49.196;8.286;2022-08-27T02:05:26;39.80;;;28.20;;
5460;SDS011;2753;49.196;8.286;2022-08-27T02:07:53;33.30;;;26.10;;
5460;SDS011;2753;49.196;8.286;2022-08-27T02:10:21;37.03;;;28.23;;
5460;SDS011;2753;49.196;8.286;2022-08-27T02:15:36;34.37;;;27.77;;
5460;SDS011;2753;49.196;8.286;2022-08-27T02:18:03;32.70;;;26.10;;
5460;SDS011;2753;49.196;8.286;2022-08-27T02:20:30;31.87;;;25.70;;
5460;SDS011;2753;49.196;8.286;2022-08-27T02:22:56;33.60;;;26.23;;
5460;SDS011;2753;49.196;8.286;2022-08-27T02:25:22;35.70;;;26.97;;
5460;SDS011;2753;49.196;8.286;2022-08-27T02:27:49;37.33;;;26.40;;
5460;SDS011;2753;49.196;8.286;2022-08-27T02:30:17;33.67;;;25.60;;
5460;SDS011;2753;49.196;8.286;2022-08-27T02:32:47;33.80;;;26.90;;
5460;SDS011;2753;49.196;8.286;2022-08-27T02:35:14;35.37;;;25.97;;
5460;SDS011;2753;49.196;8.286;2022-08-27T02:37:41;37.93;;;26.40;;
5460;SDS011;2753;49.196;8.286;2022-08-27T02:40:08;33.33;;;25.53;;
5460;SDS011;2753;49.196;8.286;2022-08-27T02:42:35;37.30;;;26.80;;
5460;SDS011;2753;49.196;8.286;2022-08-27T02:45:00;35.40;;;26.57;;
5460;SDS011;2753;49.196;8.286;2022-08-27T02:47:26;34.70;;;27.13;;
5460;SDS011;2753;49.196;8.286;2022-08-27T02:49:52;35.00;;;26.10;;
5460;SDS011;2753;49.196;8.286;2022-08-27T02:52:18;33.27;;;26.00;;
5460;SDS011;2753;49.196;8.286;2022-08-27T02:54:44;36.50;;;26.93;;
5460;SDS011;2753;49.196;8.286;2022-08-27T02:57:10;31.70;;;24.57;;
5460;SDS011;2753;49.196;8.286;2022-08-27T02:59:36;31.07;;;24.90;;
5460;SDS011;2753;49.196;8.286;2022-08-27T03:02:02;26.63;;;22.73;;
5460;SDS011;2753;49.196;8.286;2022-08-27T03:04:28;28.90;;;23.73;;
5460;SDS011;2753;49.196;8.286;2022-08-27T03:06:54;29.53;;;22.80;;
5460;SDS011;2753;49.196;8.286;2022-08-27T03:09:20;35.70;;;24.33;;
5460;SDS011;2753;49.196;8.286;2022-08-27T03:11:45;29.90;;;24.07;;
5460;SDS011;2753;49.196;8.286;2022-08-27T03:14:11;27.80;;;23.93;;
5460;SDS011;2753;49.196;8.286;2022-08-27T03:16:37;34.60;;;24.40;;
5460;SDS011;2753;49.196;8.286;2022-08-27T03:19:04;34.47;;;23.83;;
5460;SDS011;2753;49.196;8.286;2022-08-27T03:21:31;28.07;;;22.33;;
5460;SDS011;2753;49.196;8.286;2022-08-27T03:23:57;30.40;;;22.87;;
5460;SDS011;2753;49.196;8.286;2022-08-27T03:26:25;32.47;;;23.47;;
5460;SDS011;2753;49.196;8.286;2022-08-27T03:28:52;27.07;;;22.87;;
5460;SDS011;2753;49.196;8.286;2022-08-27T03:31:19;32.20;;;23.10;;
5460;SDS011;2753;49.196;8.286;2022-08-27T03:34:01;35.20;;;21.80;;
5460;SDS011;2753;49.196;8.286;2022-08-27T03:36:30;29.83;;;21.90;;
5460;SDS011;2753;49.196;8.286;2022-08-27T03:38:56;29.67;;;22.30;;
5460;SDS011;2753;49.196;8.286;2022-08-27T03:41:22;30.93;;;23.47;;
5460;SDS011;2753;49.196;8.286;2022-08-27T03:43:49;32.03;;;21.93;;
5460;SDS011;2753;49.196;8.286;2022-08-27T03:46:17;27.87;;;21.90;;
5460;SDS011;2753;49.196;8.286;2022-08-27T03:48:44;27.33;;;21.60;;
5460;SDS011;2753;49.196;8.286;2022-08-27T03:51:11;27.13;;;21.47;;
5460;SDS011;2753;49.196;8.286;2022-08-27T03:53:39;25.90;;;21.67;;
5460;SDS011;2753;49.196;8.286;2022-08-27T03:56:06;24.57;;;20.93;;
5460;SDS011;2753;49.196;8.286;2022-08-27T03:58:33;33.30;;;21.50;;
5460;SDS011;2753;49.196;8.286;2022-08-27T04:01:00;29.90;;;23.00;;
5460;SDS011;2753;49.196;8.286;2022-08-27T04:03:26;26.90;;;22.10;;
5460;SDS011;2753;49.196;8.286;2022-08-27T04:05:53;29.57;;;22.37;;
5460;SDS011;2753;49.196;8.286;2022-08-27T04:08:19;25.07;;;20.83;;
5460;SDS011;2753;49.196;8.286;2022-08-27T04:10:46;30.90;;;22.30;;
5460;SDS011;2753;49.196;8.286;2022-08-27T04:13:13;29.57;;;23.70;;
5460;SDS011;2753;49.196;8.286;2022-08-27T04:15:42;29.77;;;22.30;;
5460;SDS011;2753;49.196;8.286;2022-08-27T04:18:09;39.80;;;22.43;;
5460;SDS011;2753;49.196;8.286;2022-08-27T04:20:36;27.87;;;21.17;;
5460;SDS011;2753;49.196;8.286;2022-08-27T04:23:02;26.67;;;23.10;;
5460;SDS011;2753;49.196;8.286;2022-08-27T04:25:29;27.13;;;22.23;;
5460;SDS011;2753;49.196;8.286;2022-08-27T04:27:55;23.63;;;21.23;;
5460;SDS011;2753;49.196;8.286;2022-08-27T04:30:21;28.10;;;21.30;;
5460;SDS011;2753;49.196;8.286;2022-08-27T04:32:47;25.00;;;22.17;;
5460;SDS011;2753;49.196;8.286;2022-08-27T04:35:13;22.80;;;20.40;;
5460;SDS011;2753;49.196;8.286;2022-08-27T04:37:38;26.17;;;21.17;;
5460;SDS011;2753;49.196;8.286;2022-08-27T04:40:04;31.97;;;21.27;;
5460;SDS011;2753;49.196;8.286;2022-08-27T04:42:30;27.30;;;20.70;;
5460;SDS011;2753;49.196;8.286;2022-08-27T04:44:56;33.23;;;22.47;;
5460;SDS011;2753;49.196;8.286;2022-08-27T04:47:22;31.63;;;22.93;;
5460;SDS011;2753;49.196;8.286;2022-08-27T04:49:47;30.27;;;23.67;;
5460;SDS011;2753;49.196;8.286;2022-08-27T04:52:13;38.40;;;24.33;;
5460;SDS011;2753;49.196;8.286;2022-08-27T04:54:40;32.70;;;25.07;;
5460;SDS011;2753;49.196;8.286;2022-08-27T04:57:06;33.23;;;25.87;;
5460;SDS011;2753;49.196;8.286;2022-08-27T04:59:32;45.93;;;26.37;;
5460;SDS011;2753;49.196;8.286;2022-08-27T05:01:59;35.00;;;24.57;;
5460;SDS011;2753;49.196;8.286;2022-08-27T05:04:26;30.00;;;25.60;;
5460;SDS011;2753;49.196;8.286;2022-08-27T05:06:53;35.00;;;25.13;;
5460;SDS011;2753;49.196;8.286;2022-08-27T05:09:19;37.53;;;26.50;;
5460;SDS011;2753;49.196;8.286;2022-08-27T05:11:45;30.73;;;25.53;;
5460;SDS011;2753;49.196;8.286;2022-08-27T05:14:11;29.57;;;24.73;;
5460;SDS011;2753;49.196;8.286;2022-08-27T05:16:39;39.00;;;24.90;;
5460;SDS011;2753;49.196;8.286;2022-08-27T05:19:08;31.03;;;24.77;;
5460;SDS011;2753;49.196;8.286;2022-08-27T05:21:38;28.60;;;24.87;;
5460;SDS011;2753;49.196;8.286;2022-08-27T05:24:13;38.70;;;24.27;;
5460;SDS011;2753;49.196;8.286;2022-08-27T05:26:39;33.03;;;24.67;;
5460;SDS011;2753;49.196;8.286;2022-08-27T05:29:05;29.90;;;24.40;;
5460;SDS011;2753;49.196;8.286;2022-08-27T05:31:31;35.23;;;25.13;;
5460;SDS011;2753;49.196;8.286;2022-08-27T05:33:58;27.20;;;22.80;;
5460;SDS011;2753;49.196;8.286;2022-08-27T05:36:29;30.93;;;23.03;;
5460;SDS011;2753;49.196;8.286;2022-08-27T05:38:58;29.40;;;23.00;;
5460;SDS011;2753;49.196;8.286;2022-08-27T05:41:29;29.13;;;23.30;;
5460;SDS011;2753;49.196;8.286;2022-08-27T05:43:58;25.37;;;22.67;;
5460;SDS011;2753;49.196;8.286;2022-08-27T05:46:25;27.73;;;21.90;;
5460;SDS011;2753;49.196;8.286;2022-08-27T05:48:54;24.70;;;20.70;;
5460;SDS011;2753;49.196;8.286;2022-08-27T05:51:26;34.93;;;23.00;;
5460;SDS011;2753;49.196;8.286;2022-08-27T05:53:56;29.13;;;18.50;;
5460;SDS011;2753;49.196;8.286;2022-08-27T05:56:26;39.73;;;21.63;;
5460;SDS011;2753;49.196;8.286;2022-08-27T05:58:54;29.07;;;21.67;;
5460;SDS011;2753;49.196;8.286;2022-08-27T06:01:41;30.80;;;21.27;;
5460;SDS011;2753;49.196;8.286;2022-08-27T06:04:09;23.20;;;20.67;;
5460;SDS011;2753;49.196;8.286;2022-08-27T06:06:36;23.37;;;20.93;;
5460;SDS011;2753;49.196;8.286;2022-08-27T06:09:04;28.87;;;22.70;;
5460;SDS011;2753;49.196;8.286;2022-08-27T06:11:30;26.33;;;22.27;;
5460;SDS011;2753;49.196;8.286;2022-08-27T06:13:56;30.53;;;21.03;;
5460;SDS011;2753;49.196;8.286;2022-08-27T06:16:22;28.50;;;22.33;;
5460;SDS011;2753;49.196;8.286;2022-08-27T06:18:48;33.33;;;21.73;;
5460;SDS011;2753;49.196;8.286;2022-08-27T06:21:14;34.43;;;20.60;;
5460;SDS011;2753;49.196;8.286;2022-08-27T06:23:41;30.10;;;20.80;;
5460;SDS011;2753;49.196;8.286;2022-08-27T06:26:08;39.77;;;22.77;;
5460;SDS011;2753;49.196;8.286;2022-08-27T06:28:36;29.93;;;20.60;;
5460;SDS011;2753;49.196;8.286;2022-08-27T06:33:33;29.53;;;22.03;;
5460;SDS011;2753;49.196;8.286;2022-08-27T06:35:59;43.70;;;22.77;;
5460;SDS011;2753;49.196;8.286;2022-08-27T06:38:27;35.57;;;23.47;;
5460;SDS011;2753;49.196;8.286;2022-08-27T06:40:53;26.90;;;22.53;;
5460;SDS011;2753;49.196;8.286;2022-08-27T06:43:20;31.03;;;21.10;;
5460;SDS011;2753;49.196;8.286;2022-08-27T06:45:46;33.60;;;21.67;;
5460;SDS011;2753;49.196;8.286;2022-08-27T06:48:12;29.50;;;22.03;;
5460;SDS011;2753;49.196;8.286;2022-08-27T06:50:38;30.93;;;21.73;;
5460;SDS011;2753;49.196;8.286;2022-08-27T06:53:05;24.70;;;21.17;;
5460;SDS011;2753;49.196;8.286;2022-08-27T06:55:31;30.83;;;22.40;;
5460;SDS011;2753;49.196;8.286;2022-08-27T06:58:03;28.93;;;21.97;;
5460;SDS011;2753;49.196;8.286;2022-08-27T07:00:29;31.63;;;23.20;;
5460;SDS011;2753;49.196;8.286;2022-08-27T07:02:55;29.50;;;23.20;;
5460;SDS011;2753;49.196;8.286;2022-08-27T07:05:21;31.90;;;22.90;;
5460;SDS011;2753;49.196;8.286;2022-08-27T07:07:46;29.53;;;21.57;;
5460;SDS011;2753;49.196;8.286;2022-08-27T07:10:12;25.97;;;21.53;;
5460;SDS011;2753;49.196;8.286;2022-08-27T07:12:38;29.97;;;22.40;;
5460;SDS011;2753;49.196;8.286;2022-08-27T07:15:04;32.90;;;23.13;;
5460;SDS011;2753;49.196;8.286;2022-08-27T07:17:30;30.17;;;22.97;;
5460;SDS011;2753;49.196;8.286;2022-08-27T07:19:55;34.80;;;23.23;;
5460;SDS011;2753;49.196;8.286;2022-08-27T07:22:21;28.10;;;23.20;;
5460;SDS011;2753;49.196;8.286;2022-08-27T07:24:47;26.50;;;22.63;;
5460;SDS011;2753;49.196;8.286;2022-08-27T07:27:12;36.23;;;25.90;;
5460;SDS011;2753;49.196;8.286;2022-08-27T07:29:38;33.20;;;23.67;;
5460;SDS011;2753;49.196;8.286;2022-08-27T07:32:04;34.77;;;24.37;;
5460;SDS011;2753;49.196;8.286;2022-08-27T07:34:29;25.77;;;23.00;;
5460;SDS011;2753;49.196;8.286;2022-08-27T07:36:55;39.63;;;23.50;;
5460;SDS011;2753;49.196;8.286;2022-08-27T07:39:21;31.20;;;24.10;;
5460;SDS011;2753;49.196;8.286;2022-08-27T07:41:46;38.47;;;25.70;;
5460;SDS011;2753;49.196;8.286;2022-08-27T07:44:30;32.90;;;24.20;;
5460;SDS011;2753;49.196;8.286;2022-08-27T07:46:56;30.27;;;24.73;;
5460;SDS011;2753;49.196;8.286;2022-08-27T07:49:23;33.50;;;24.97;;
5460;SDS011;2753;49.196;8.286;2022-08-27T07:51:49;29.60;;;23.13;;
5460;SDS011;2753;49.196;8.286;2022-08-27T07:54:15;31.43;;;23.70;;
5460;SDS011;2753;49.196;8.286;2022-08-27T07:56:41;32.37;;;23.40;;
5460;SDS011;2753;49.196;8.286;2022-08-27T07:59:07;33.43;;;25.80;;
5460;SDS011;2753;49.196;8.286;2022-08-27T08:01:33;28.93;;;24.33;;
5460;SDS011;2753;49.196;8.286;2022-08-27T08:03:59;33.17;;;24.00;;
5460;SDS011;2753;49.196;8.286;2022-08-27T08:06:25;33.93;;;23.97;;
5460;SDS011;2753;49.196;8.286;2022-08-27T08:08:50;31.57;;;23.60;;
5460;SDS011;2753;49.196;8.286;2022-08-27T08:11:17;30.30;;;22.27;;
5460;SDS011;2753;49.196;8.286;2022-08-27T08:13:43;33.30;;;24.50;;
5460;SDS011;2753;49.196;8.286;2022-08-27T08:16:09;31.33;;;22.80;;
5460;SDS011;2753;49.196;8.286;2022-08-27T08:18:36;38.37;;;23.67;;
5460;SDS011;2753;49.196;8.286;2022-08-27T08:21:03;31.83;;;23.97;;
5460;SDS011;2753;49.196;8.286;2022-08-27T08:23:31;33.30;;;24.83;;
5460;SDS011;2753;49.196;8.286;2022-08-27T08:25:57;34.10;;;24.93;;
5460;SDS011;2753;49.196;8.286;2022-08-27T08:28:24;27.67;;;24.40;;
5460;SDS011;2753;49.196;8.286;2022-08-27T08:30:51;43.40;;;24.70;;
5460;SDS011;2753;49.196;8.286;2022-08-27T08:33:18;39.07;;;24.40;;
5460;SDS011;2753;49.196;8.286;2022-08-27T08:35:44;30.37;;;24.17;;
5460;SDS011;2753;49.196;8.286;2022-08-27T08:38:10;32.87;;;24.73;;
5460;SDS011;2753;49.196;8.286;2022-08-27T08:40:38;27.20;;;23.93;;
5460;SDS011;2753;49.196;8.286;2022-08-27T08:43:06;33.07;;;24.77;;
5460;SDS011;2753;49.196;8.286;2022-08-27T08:45:45;33.63;;;25.00;;
5460;SDS011;2753;49.196;8.286;2022-08-27T08:48:12;33.70;;;25.07;;
5460;SDS011;2753;49.196;8.286;2022-08-27T08:50:52;37.37;;;25.67;;
5460;SDS011;2753;49.196;8.286;2022-08-27T08:53:32;32.07;;;26.03;;
5460;SDS011;2753;49.196;8.286;2022-08-27T08:56:01;35.83;;;25.87;;
5460;SDS011;2753;49.196;8.286;2022-08-27T09:01:03;28.23;;;24.40;;
5460;SDS011;2753;49.196;8.286;2022-08-27T09:03:32;33.70;;;26.60;;
5460;SDS011;2753;49.196;8.286;2022-08-27T09:06:01;29.97;;;26.77;;
5460;SDS011;2753;49.196;8.286;2022-08-27T09:08:40;33.97;;;26.07;;
5460;SDS011;2753;49.196;8.286;2022-08-27T09:11:10;35.77;;;26.63;;
5460;SDS011;2753;49.196;8.286;2022-08-27T09:13:49;31.80;;;24.53;;
5460;SDS011;2753;49.196;8.286;2022-08-27T09:16:19;32.83;;;26.27;;
5460;SDS011;2753;49.196;8.286;2022-08-27T09:18:45;39.97;;;26.80;;
5460;SDS011;2753;49.196;8.286;2022-08-27T09:26:59;30.90;;;25.50;;
5460;SDS011;2753;49.196;8.286;2022-08-27T09:29:26;29.80;;;24.77;;
5460;SDS011;2753;49.196;8.286;2022-08-27T09:32:04;32.07;;;24.80;;
5460;SDS011;2753;49.196;8.286;2022-08-27T09:34:39;32.30;;;25.87;;
5460;SDS011;2753;49.196;8.286;2022-08-27T09:37:20;33.73;;;24.20;;
5460;SDS011;2753;49.196;8.286;2022-08-27T09:39:50;30.20;;;24.40;;
5460;SDS011;2753;49.196;8.286;2022-08-27T09:42:35;36.00;;;25.63;;
5460;SDS011;2753;49.196;8.286;2022-08-27T09:45:17;28.30;;;22.47;;
5460;SDS011;2753;49.196;8.286;2022-08-27T09:47:49;28.67;;;24.57;;
5460;SDS011;2753;49.196;8.286;2022-08-27T09:50:18;38.03;;;24.60;;
5460;SDS011;2753;49.196;8.286;2022-08-27T09:52:56;35.60;;;25.37;;
5460;SDS011;2753;49.196;8.286;2022-08-27T09:58:15;39.33;;;25.87;;
5460;SDS011;2753;49.196;8.286;2022-08-27T10:00:47;29.90;;;24.53;;
5460;SDS011;2753;49.196;8.286;2022-08-27T10:03:21;33.30;;;24.10;;
5460;SDS011;2753;49.196;8.286;2022-08-27T10:05:48;34.40;;;24.03;;
5460;SDS011;2753;49.196;8.286;2022-08-27T10:11:02;30.30;;;24.33;;
5460;SDS011;2753;49.196;8.286;2022-08-27T10:13:51;32.40;;;22.37;;
5460;SDS011;2753;49.196;8.286;2022-08-27T10:21:52;31.37;;;24.53;;
5460;SDS011;2753;49.196;8.286;2022-08-27T10:35:29;37.40;;;24.67;;
5460;SDS011;2753;49.196;8.286;2022-08-27T10:38:20;34.67;;;24.80;;
5460;SDS011;2753;49.196;8.286;2022-08-27T10:48:46;40.87;;;24.97;;
5460;SDS011;2753;49.196;8.286;2022-08-27T10:51:40;32.77;;;25.90;;
5460;SDS011;2753;49.196;8.286;2022-08-27T11:05:35;39.30;;;26.00;;
5460;SDS011;2753;49.196;8.286;2022-08-27T11:08:26;38.90;;;27.00;;
5460;SDS011;2753;49.196;8.286;2022-08-27T11:11:04;33.40;;;26.93;;
5460;SDS011;2753;49.196;8.286;2022-08-27T11:13:36;35.30;;;26.07;;
5460;SDS011;2753;49.196;8.286;2022-08-27T11:16:11;38.83;;;26.70;;
5460;SDS011;2753;49.196;8.286;2022-08-27T11:21:58;29.83;;;24.80;;
5460;SDS011;2753;49.196;8.286;2022-08-27T11:24:31;38.67;;;24.50;;
5460;SDS011;2753;49.196;8.286;2022-08-27T11:27:05;30.50;;;24.80;;
5460;SDS011;2753;49.196;8.286;2022-08-27T11:29:42;32.27;;;24.10;;
5460;SDS011;2753;49.196;8.286;2022-08-27T11:34:58;37.90;;;25.07;;
5460;SDS011;2753;49.196;8.286;2022-08-27T11:42:55;29.20;;;23.33;;
5460;SDS011;2753;49.196;8.286;2022-08-27T11:45:32;32.73;;;25.30;;
5460;SDS011;2753;49.196;8.286;2022-08-27T11:48:25;37.73;;;24.50;;
5460;SDS011;2753;49.196;8.286;2022-08-27T11:50:52;32.00;;;23.57;;
5460;SDS011;2753;49.196;8.286;2022-08-27T11:53:23;32.63;;;24.90;;
5460;SDS011;2753;49.196;8.286;2022-08-27T11:55:51;41.37;;;26.47;;
5460;SDS011;2753;49.196;8.286;2022-08-27T12:00:43;41.17;;;26.83;;
5460;SDS011;2753;49.196;8.286;2022-08-27T12:03:29;39.97;;;28.40;;
5460;SDS011;2753;49.196;8.286;2022-08-27T12:11:35;32.30;;;24.93;;
5460;SDS011;2753;49.196;8.286;2022-08-27T12:14:00;29.77;;;23.40;;
5460;SDS011;2753;49.196;8.286;2022-08-27T12:32:46;33.43;;;24.50;;
5460;SDS011;2753;49.196;8.286;2022-08-27T12:35:35;30.90;;;21.60;;
5460;SDS011;2753;49.196;8.286;2022-08-27T12:38:18;24.07;;;20.80;;
5460;SDS011;2753;49.196;8.286;2022-08-27T12:40:51;34.83;;;22.80;;
5460;SDS011;2753;49.196;8.286;2022-08-27T12:43:20;31.50;;;21.00;;
5460;SDS011;2753;49.196;8.286;2022-08-27T12:45:59;28.60;;;22.60;;
5460;SDS011;2753;49.196;8.286;2022-08-27T12:48:28;27.03;;;21.60;;
5460;SDS011;2753;49.196;8.286;2022-08-27T12:50:58;26.43;;;20.60;;
5460;SDS011;2753;49.196;8.286;2022-08-27T12:53:33;27.60;;;19.73;;
5460;SDS011;2753;49.196;8.286;2022-08-27T13:05:10;21.90;;;19.00;;
5460;SDS011;2753;49.196;8.286;2022-08-27T13:07:40;26.83;;;18.30;;
5460;SDS011;2753;49.196;8.286;2022-08-27T13:10:08;46.63;;;18.30;;
5460;SDS011;2753;49.196;8.286;2022-08-27T13:12:38;26.83;;;16.77;;
5460;SDS011;2753;49.196;8.286;2022-08-27T13:15:06;25.23;;;16.87;;
5460;SDS011;2753;49.196;8.286;2022-08-27T13:17:35;30.10;;;18.67;;
5460;SDS011;2753;49.196;8.286;2022-08-27T13:20:03;29.70;;;17.47;;
5460;SDS011;2753;49.196;8.286;2022-08-27T13:22:41;21.63;;;16.80;;
5460;SDS011;2753;49.196;8.286;2022-08-27T13:28:11;24.43;;;19.33;;
5460;SDS011;2753;49.196;8.286;2022-08-27T13:30:42;30.07;;;17.57;;
5460;SDS011;2753;49.196;8.286;2022-08-27T13:33:15;32.80;;;17.40;;
5460;SDS011;2753;49.196;8.286;2022-08-27T13:35:46;25.70;;;16.40;;
5460;SDS011;2753;49.196;8.286;2022-08-27T13:38:13;27.67;;;17.83;;
5460;SDS011;2753;49.196;8.286;2022-08-27T13:43:57;22.40;;;15.40;;
5460;SDS011;2753;49.196;8.286;2022-08-27T13:46:20;18.70;;;15.27;;
5460;SDS011;2753;49.196;8.286;2022-08-27T13:48:50;18.27;;;14.73;;
5460;SDS011;2753;49.196;8.286;2022-08-27T13:51:29;20.63;;;16.13;;
5460;SDS011;2753;49.196;8.286;2022-08-27T13:53:57;22.50;;;14.50;;
5460;SDS011;2753;49.196;8.286;2022-08-27T13:56:39;22.53;;;13.70;;
5460;SDS011;2753;49.196;8.286;2022-08-27T13:59:21;21.80;;;12.83;;
5460;SDS011;2753;49.196;8.286;2022-08-27T14:07:28;23.30;;;12.23;;
5460;SDS011;2753;49.196;8.286;2022-08-27T14:10:02;21.43;;;12.70;;
5460;SDS011;2753;49.196;8.286;2022-08-27T14:13:05;22.60;;;12.20;;
5460;SDS011;2753;49.196;8.286;2022-08-27T14:18:27;18.93;;;12.07;;
5460;SDS011;2753;49.196;8.286;2022-08-27T14:21:00;21.83;;;11.70;;
5460;SDS011;2753;49.196;8.286;2022-08-27T14:23:28;13.43;;;11.57;;
5460;SDS011;2753;49.196;8.286;2022-08-27T14:25:58;18.77;;;11.93;;
5460;SDS011;2753;49.196;8.286;2022-08-27T14:28:26;17.33;;;11.77;;
5460;SDS011;2753;49.196;8.286;2022-08-27T14:30:52;19.20;;;11.40;;
5460;SDS011;2753;49.196;8.286;2022-08-27T14:33:18;20.97;;;12.07;;
5460;SDS011;2753;49.196;8.286;2022-08-27T14:35:43;26.27;;;11.97;;
5460;SDS011;2753;49.196;8.286;2022-08-27T14:40:42;13.00;;;10.83;;
5460;SDS011;2753;49.196;8.286;2022-08-27T14:43:11;12.50;;;10.57;;
5460;SDS011;2753;49.196;8.286;2022-08-27T14:45:38;19.50;;;11.80;;
5460;SDS011;2753;49.196;8.286;2022-08-27T14:48:06;13.80;;;10.83;;
5460;SDS011;2753;49.196;8.286;2022-08-27T14:50:35;23.10;;;11.70;;
5460;SDS011;2753;49.196;8.286;2022-08-27T14:53:02;15.00;;;11.60;;
5460;SDS011;2753;49.196;8.286;2022-08-27T14:55:28;13.17;;;10.50;;
5460;SDS011;2753;49.196;8.286;2022-08-27T14:57:55;11.10;;;9.90;;
5460;SDS011;2753;49.196;8.286;2022-08-27T15:00:23;14.40;;;11.13;;
5460;SDS011;2753;49.196;8.286;2022-08-27T15:02:50;15.23;;;10.60;;
5460;SDS011;2753;49.196;8.286;2022-08-27T15:05:16;19.73;;;10.03;;
5460;SDS011;2753;49.196;8.286;2022-08-27T15:07:43;17.80;;;11.73;;
5460;SDS011;2753;49.196;8.286;2022-08-27T15:10:09;15.33;;;10.63;;
5460;SDS011;2753;49.196;8.286;2022-08-27T15:12:35;16.37;;;11.60;;
5460;SDS011;2753;49.196;8.286;2022-08-27T15:15:02;14.23;;;10.40;;
5460;SDS011;2753;49.196;8.286;2022-08-27T15:17:30;13.97;;;9.83;;
5460;SDS011;2753;49.196;8.286;2022-08-27T15:19:56;21.50;;;9.43;;
5460;SDS011;2753;49.196;8.286;2022-08-27T15:22:22;17.73;;;9.83;;
5460;SDS011;2753;49.196;8.286;2022-08-27T15:24:51;16.50;;;9.80;;
5460;SDS011;2753;49.196;8.286;2022-08-27T15:27:20;13.60;;;9.13;;
5460;SDS011;2753;49.196;8.286;2022-08-27T15:29:46;12.70;;;10.20;;
5460;SDS011;2753;49.196;8.286;2022-08-27T15:32:39;12.20;;;9.37;;
5460;SDS011;2753;49.196;8.286;2022-08-27T15:35:00;12.30;;;9.73;;
5460;SDS011;2753;49.196;8.286;2022-08-27T15:37:29;10.07;;;8.40;;
5460;SDS011;2753;49.196;8.286;2022-08-27T15:39:55;17.80;;;9.00;;
5460;SDS011;2753;49.196;8.286;2022-08-27T15:42:21;15.80;;;9.53;;
5460;SDS011;2753;49.196;8.286;2022-08-27T15:44:51;14.20;;;9.20;;
5460;SDS011;2753;49.196;8.286;2022-08-27T15:47:18;9.70;;;8.60;;
5460;SDS011;2753;49.196;8.286;2022-08-27T15:49:44;12.40;;;8.17;;
5460;SDS011;2753;49.196;8.286;2022-08-27T15:52:09;10.03;;;8.60;;
5460;SDS011;2753;49.196;8.286;2022-08-27T15:54:37;12.63;;;7.43;;
5460;SDS011;2753;49.196;8.286;2022-08-27T15:57:04;9.00;;;8.10;;
5460;SDS011;2753;49.196;8.286;2022-08-27T15:59:30;12.67;;;8.27;;
5460;SDS011;2753;49.196;8.286;2022-08-27T16:01:57;15.33;;;7.80;;
5460;SDS011;2753;49.196;8.286;2022-08-27T16:04:23;8.77;;;7.90;;
5460;SDS011;2753;49.196;8.286;2022-08-27T16:06:49;9.13;;;7.80;;
5460;SDS011;2753;49.196;8.286;2022-08-27T16:09:15;11.20;;;7.60;;
5460;SDS011;2753;49.196;8.286;2022-08-27T16:11:41;10.70;;;7.60;;
5460;SDS011;2753;49.196;8.286;2022-08-27T16:14:09;12.67;;;7.97;;
5460;SDS011;2753;49.196;8.286;2022-08-27T16:16:35;15.17;;;8.50;;
5460;SDS011;2753;49.196;8.286;2022-08-27T16:19:02;9.60;;;8.30;;
5460;SDS011;2753;49.196;8.286;2022-08-27T16:21:30;9.10;;;7.63;;
5460;SDS011;2753;49.196;8.286;2022-08-27T16:23:58;8.60;;;7.40;;
5460;SDS011;2753;49.196;8.286;2022-08-27T16:26:26;11.93;;;7.37;;
5460;SDS011;2753;49.196;8.286;2022-08-27T16:28:51;11.50;;;7.67;;
5460;SDS011;2753;49.196;8.286;2022-08-27T16:31:17;9.07;;;8.00;;
5460;SDS011;2753;49.196;8.286;2022-08-27T16:33:43;9.27;;;8.10;;
5460;SDS011;2753;49.196;8.286;2022-08-27T16:36:08;13.17;;;7.87;;
5460;SDS011;2753;49.196;8.286;2022-08-27T16:38:34;9.77;;;7.70;;
5460;SDS011;2753;49.196;8.286;2022-08-27T16:41:01;10.10;;;7.33;;
5460;SDS011;2753;49.196;8.286;2022-08-27T16:43:27;12.73;;;7.50;;
5460;SDS011;2753;49.196;8.286;2022-08-27T16:45:53;10.77;;;7.47;;
5460;SDS011;2753;49.196;8.286;2022-08-27T16:48:21;13.40;;;8.00;;
5460;SDS011;2753;49.196;8.286;2022-08-27T16:51:06;13.93;;;8.03;;
5460;SDS011;2753;49.196;8.286;2022-08-27T16:53:39;8.93;;;8.03;;
5460;SDS011;2753;49.196;8.286;2022-08-27T16:56:06;10.57;;;7.53;;
5460;SDS011;2753;49.196;8.286;2022-08-27T16:58:33;13.50;;;7.80;;